sensor_id;sensor_type;location;lat;lon;timestamp;temperature;humidity
71297;SHT31;59082;50.658;4.608;2022-09-09T00:00:00;13.39;99.99
71297;SHT31;59082;50.658;4.608;2022-09-09T00:02:29;13.36;99.99
71297;SHT31;59082;50.658;4.608;2022-09-09T00:07:41;13.37;99.99
71297;SHT31;59082;50.658;4.608;2022-09-09T00:15:31;13.51;99.99
71297;SHT31;59082;50.658;4.608;2022-09-09T00:18:15;13.58;99.99
71297;SHT31;59082;50.658;4.608;2022-09-09T00:20:49;13.64;99.99
71297;SHT31;59082;50.658;4.608;2022-09-09T00:23:35;13.63;99.99
71297;SHT31;59082;50.658;4.608;2022-09-09T00:26:18;13.65;99.99
71297;SHT31;59082;50.658;4.608;2022-09-09T00:28:52;13.65;99.99
71297;SHT31;59082;50.658;4.608;2022-09-09T00:31:23;13.65;99.99
71297;SHT31;59082;50.658;4.608;2022-09-09T00:33:50;13.61;99.99
71297;SHT31;59082;50.658;4.608;2022-09-09T00:36:21;13.60;99.99
71297;SHT31;59082;50.658;4.608;2022-09-09T00:38:57;13.63;99.99
71297;SHT31;59082;50.658;4.608;2022-09-09T00:41:56;13.58;99.99
71297;SHT31;59082;50.658;4.608;2022-09-09T00:44:32;13.55;99.99
71297;SHT31;59082;50.658;4.608;2022-09-09T00:50:00;13.61;99.99
71297;SHT31;59082;50.658;4.608;2022-09-09T00:57:58;13.84;99.99
71297;SHT31;59082;50.658;4.608;2022-09-09T01:00:29;13.82;99.99
71297;SHT31;59082;50.658;4.608;2022-09-09T01:03:10;13.86;99.99
71297;SHT31;59082;50.658;4.608;2022-09-09T01:11:27;13.82;99.99
71297;SHT31;59082;50.658;4.608;2022-09-09T01:17:20;13.89;99.99
71297;SHT31;59082;50.658;4.608;2022-09-09T01:22:21;13.92;99.99
71297;SHT31;59082;50.658;4.608;2022-09-09T01:28:22;14.06;99.99
71297;SHT31;59082;50.658;4.608;2022-09-09T01:30:50;14.02;99.99
71297;SHT31;59082;50.658;4.608;2022-09-09T01:33:17;14.00;99.99
71297;SHT31;59082;50.658;4.608;2022-09-09T01:36:03;14.01;99.99
71297;SHT31;59082;50.658;4.608;2022-09-09T01:38:32;14.01;99.99
71297;SHT31;59082;50.658;4.608;2022-09-09T01:40:58;14.06;99.99
71297;SHT31;59082;50.658;4.608;2022-09-09T01:43:25;14.12;99.99
71297;SHT31;59082;50.658;4.608;2022-09-09T01:45:53;14.06;99.99
71297;SHT31;59082;50.658;4.608;2022-09-09T01:48:21;14.06;99.99
71297;SHT31;59082;50.658;4.608;2022-09-09T01:50:47;14.05;99.99
71297;SHT31;59082;50.658;4.608;2022-09-09T01:53:15;14.01;99.99
71297;SHT31;59082;50.658;4.608;2022-09-09T01:55:48;14.01;99.99
71297;SHT31;59082;50.658;4.608;2022-09-09T01:58:31;13.94;99.99
71297;SHT31;59082;50.658;4.608;2022-09-09T02:04:04;13.91;99.99
71297;SHT31;59082;50.658;4.608;2022-09-09T02:06:35;13.95;99.99
71297;SHT31;59082;50.658;4.608;2022-09-09T02:09:05;13.97;99.99
71297;SHT31;59082;50.658;4.608;2022-09-09T02:11:32;14.01;99.99
71297;SHT31;59082;50.658;4.608;2022-09-09T02:14:11;13.97;99.99
71297;SHT31;59082;50.658;4.608;2022-09-09T02:16:42;13.91;99.99
71297;SHT31;59082;50.658;4.608;2022-09-09T02:19:18;13.92;99.99
71297;SHT31;59082;50.658;4.608;2022-09-09T02:21:49;13.85;99.99
71297;SHT31;59082;50.658;4.608;2022-09-09T02:24:15;13.84;99.99
71297;SHT31;59082;50.658;4.608;2022-09-09T02:26:42;13.74;99.99
71297;SHT31;59082;50.658;4.608;2022-09-09T02:29:15;13.77;99.99
71297;SHT31;59082;50.658;4.608;2022-09-09T02:31:43;13.79;99.99
71297;SHT31;59082;50.658;4.608;2022-09-09T02:34:11;13.73;99.99
71297;SHT31;59082;50.658;4.608;2022-09-09T02:36:40;13.71;99.99
71297;SHT31;59082;50.658;4.608;2022-09-09T02:39:09;13.71;99.99
71297;SHT31;59082;50.658;4.608;2022-09-09T02:41:38;13.63;99.99
71297;SHT31;59082;50.658;4.608;2022-09-09T02:44:15;13.64;99.99
71297;SHT31;59082;50.658;4.608;2022-09-09T02:47:07;13.63;99.99
71297;SHT31;59082;50.658;4.608;2022-09-09T02:50:08;13.63;99.99
71297;SHT31;59082;50.658;4.608;2022-09-09T02:58:06;13.73;99.99
71297;SHT31;59082;50.658;4.608;2022-09-09T03:00:33;13.73;99.99
71297;SHT31;59082;50.658;4.608;2022-09-09T03:03:04;13.70;99.99
71297;SHT31;59082;50.658;4.608;2022-09-09T03:05:30;13.68;99.99
71297;SHT31;59082;50.658;4.608;2022-09-09T03:07:55;13.68;99.99
71297;SHT31;59082;50.658;4.608;2022-09-09T03:10:21;13.61;99.99
71297;SHT31;59082;50.658;4.608;2022-09-09T03:12:47;13.61;99.99
71297;SHT31;59082;50.658;4.608;2022-09-09T03:15:12;13.60;99.99
71297;SHT31;59082;50.658;4.608;2022-09-09T03:17:40;13.57;99.99
71297;SHT31;59082;50.658;4.608;2022-09-09T03:20:06;13.61;99.99
71297;SHT31;59082;50.658;4.608;2022-09-09T03:22:32;13.61;99.99
71297;SHT31;59082;50.658;4.608;2022-09-09T03:24:58;13.55;99.99
71297;SHT31;59082;50.658;4.608;2022-09-09T03:27:23;13.53;99.99
71297;SHT31;59082;50.658;4.608;2022-09-09T03:29:49;13.53;99.99
71297;SHT31;59082;50.658;4.608;2022-09-09T03:32:16;13.53;99.99
71297;SHT31;59082;50.658;4.608;2022-09-09T03:34:43;13.61;99.99
71297;SHT31;59082;50.658;4.608;2022-09-09T03:37:08;13.60;99.99
71297;SHT31;59082;50.658;4.608;2022-09-09T03:39:34;13.64;99.99
71297;SHT31;59082;50.658;4.608;2022-09-09T03:41:59;13.70;99.99
71297;SHT31;59082;50.658;4.608;2022-09-09T03:44:29;13.70;99.99
71297;SHT31;59082;50.658;4.608;2022-09-09T03:46:55;13.73;99.99
71297;SHT31;59082;50.658;4.608;2022-09-09T03:49:21;13.71;99.99
71297;SHT31;59082;50.658;4.608;2022-09-09T03:51:47;13.79;99.99
71297;SHT31;59082;50.658;4.608;2022-09-09T03:54:12;13.84;99.99
71297;SHT31;59082;50.658;4.608;2022-09-09T03:56:38;13.86;99.99
71297;SHT31;59082;50.658;4.608;2022-09-09T03:59:04;13.91;99.99
71297;SHT31;59082;50.658;4.608;2022-09-09T04:01:30;13.92;99.99
71297;SHT31;59082;50.658;4.608;2022-09-09T04:03:55;13.92;99.99
71297;SHT31;59082;50.658;4.608;2022-09-09T04:06:24;14.00;99.99
71297;SHT31;59082;50.658;4.608;2022-09-09T04:08:49;14.04;99.99
71297;SHT31;59082;50.658;4.608;2022-09-09T04:11:17;14.05;99.99
71297;SHT31;59082;50.658;4.608;2022-09-09T04:13:43;14.08;99.99
71297;SHT31;59082;50.658;4.608;2022-09-09T04:16:10;14.09;99.99
71297;SHT31;59082;50.658;4.608;2022-09-09T04:18:38;14.11;99.99
71297;SHT31;59082;50.658;4.608;2022-09-09T04:21:04;14.13;99.99
71297;SHT31;59082;50.658;4.608;2022-09-09T04:23:32;14.18;99.99
71297;SHT31;59082;50.658;4.608;2022-09-09T04:25:59;14.19;99.99
71297;SHT31;59082;50.658;4.608;2022-09-09T04:28:27;14.16;99.99
71297;SHT31;59082;50.658;4.608;2022-09-09T04:30:53;14.11;99.99
71297;SHT31;59082;50.658;4.608;2022-09-09T04:33:19;14.06;99.99
71297;SHT31;59082;50.658;4.608;2022-09-09T04:35:46;14.09;99.99
71297;SHT31;59082;50.658;4.608;2022-09-09T04:38:12;14.04;99.99
71297;SHT31;59082;50.658;4.608;2022-09-09T04:40:38;13.97;99.99
71297;SHT31;59082;50.658;4.608;2022-09-09T04:43:08;13.94;99.99
71297;SHT31;59082;50.658;4.608;2022-09-09T04:45:34;13.88;99.99
71297;SHT31;59082;50.658;4.608;2022-09-09T04:47:59;13.86;99.99
71297;SHT31;59082;50.658;4.608;2022-09-09T04:50:25;13.85;99.99
71297;SHT31;59082;50.658;4.608;2022-09-09T04:52:51;13.94;99.99
71297;SHT31;59082;50.658;4.608;2022-09-09T04:55:16;13.98;99.99
71297;SHT31;59082;50.658;4.608;2022-09-09T04:57:42;14.11;99.99
71297;SHT31;59082;50.658;4.608;2022-09-09T05:00:08;14.22;99.99
71297;SHT31;59082;50.658;4.608;2022-09-09T05:02:37;14.29;99.99
71297;SHT31;59082;50.658;4.608;2022-09-09T05:05:04;14.34;99.99
71297;SHT31;59082;50.658;4.608;2022-09-09T05:07:30;14.40;99.99
71297;SHT31;59082;50.658;4.608;2022-09-09T05:09:56;14.46;99.99
71297;SHT31;59082;50.658;4.608;2022-09-09T05:12:22;14.53;99.99
71297;SHT31;59082;50.658;4.608;2022-09-09T05:14:49;14.60;99.99
71297;SHT31;59082;50.658;4.608;2022-09-09T05:17:15;14.61;99.99
71297;SHT31;59082;50.658;4.608;2022-09-09T05:19:41;14.63;99.99
71297;SHT31;59082;50.658;4.608;2022-09-09T05:22:08;14.60;99.99
71297;SHT31;59082;50.658;4.608;2022-09-09T05:24:33;14.59;99.99
71297;SHT31;59082;50.658;4.608;2022-09-09T05:26:59;14.59;99.99
71297;SHT31;59082;50.658;4.608;2022-09-09T05:29:27;14.64;99.99
71297;SHT31;59082;50.658;4.608;2022-09-09T05:31:53;14.61;99.99
71297;SHT31;59082;50.658;4.608;2022-09-09T05:34:18;14.55;99.99
71297;SHT31;59082;50.658;4.608;2022-09-09T05:36:45;14.49;99.99
71297;SHT31;59082;50.658;4.608;2022-09-09T05:39:12;14.53;99.99
71297;SHT31;59082;50.658;4.608;2022-09-09T05:41:37;14.60;99.99
71297;SHT31;59082;50.658;4.608;2022-09-09T05:44:03;14.63;99.99
71297;SHT31;59082;50.658;4.608;2022-09-09T05:46:28;14.68;99.99
71297;SHT31;59082;50.658;4.608;2022-09-09T05:48:54;14.78;99.99
71297;SHT31;59082;50.658;4.608;2022-09-09T05:51:22;14.85;99.99
71297;SHT31;59082;50.658;4.608;2022-09-09T05:53:49;14.91;99.99
71297;SHT31;59082;50.658;4.608;2022-09-09T05:56:21;14.95;99.99
71297;SHT31;59082;50.658;4.608;2022-09-09T05:58:53;14.97;99.99
71297;SHT31;59082;50.658;4.608;2022-09-09T06:01:21;15.02;99.99
71297;SHT31;59082;50.658;4.608;2022-09-09T06:03:48;15.12;99.99
71297;SHT31;59082;50.658;4.608;2022-09-09T06:06:19;15.14;99.99
71297;SHT31;59082;50.658;4.608;2022-09-09T06:08:46;15.15;99.99
71297;SHT31;59082;50.658;4.608;2022-09-09T06:13:42;15.33;99.99
71297;SHT31;59082;50.658;4.608;2022-09-09T06:16:10;15.36;99.99
71297;SHT31;59082;50.658;4.608;2022-09-09T06:18:40;15.39;98.98
71297;SHT31;59082;50.658;4.608;2022-09-09T06:21:14;15.54;99.53
71297;SHT31;59082;50.658;4.608;2022-09-09T06:23:40;15.60;99.10
71297;SHT31;59082;50.658;4.608;2022-09-09T06:26:09;15.62;99.27
71297;SHT31;59082;50.658;4.608;2022-09-09T06:28:36;15.69;98.06
71297;SHT31;59082;50.658;4.608;2022-09-09T06:31:06;15.80;98.96
71297;SHT31;59082;50.658;4.608;2022-09-09T06:33:34;15.89;98.66
71297;SHT31;59082;50.658;4.608;2022-09-09T06:36:05;15.93;97.98
71297;SHT31;59082;50.658;4.608;2022-09-09T06:38:30;15.93;97.94
71297;SHT31;59082;50.658;4.608;2022-09-09T06:40:58;16.01;98.22
71297;SHT31;59082;50.658;4.608;2022-09-09T06:43:28;15.89;96.60
71297;SHT31;59082;50.658;4.608;2022-09-09T06:48:20;15.87;97.90
71297;SHT31;59082;50.658;4.608;2022-09-09T06:50:45;15.86;97.77
71297;SHT31;59082;50.658;4.608;2022-09-09T06:53:11;15.84;98.48
71297;SHT31;59082;50.658;4.608;2022-09-09T06:55:37;15.87;98.19
71297;SHT31;59082;50.658;4.608;2022-09-09T06:58:08;15.86;98.21
71297;SHT31;59082;50.658;4.608;2022-09-09T07:00:33;15.90;96.99
71297;SHT31;59082;50.658;4.608;2022-09-09T07:02:59;16.08;97.43
71297;SHT31;59082;50.658;4.608;2022-09-09T07:05:24;16.02;96.73
71297;SHT31;59082;50.658;4.608;2022-09-09T07:07:51;16.11;96.06
71297;SHT31;59082;50.658;4.608;2022-09-09T07:10:17;16.12;96.72
71297;SHT31;59082;50.658;4.608;2022-09-09T07:12:42;16.48;95.66
71297;SHT31;59082;50.658;4.608;2022-09-09T07:15:08;16.33;96.89
71297;SHT31;59082;50.658;4.608;2022-09-09T07:17:35;16.32;96.25
71297;SHT31;59082;50.658;4.608;2022-09-09T07:20:01;16.32;96.50
71297;SHT31;59082;50.658;4.608;2022-09-09T07:22:27;16.52;96.13
71297;SHT31;59082;50.658;4.608;2022-09-09T07:24:53;16.55;95.68
71297;SHT31;59082;50.658;4.608;2022-09-09T07:27:19;16.72;95.90
71297;SHT31;59082;50.658;4.608;2022-09-09T07:29:44;16.67;94.95
71297;SHT31;59082;50.658;4.608;2022-09-09T07:32:10;16.66;94.24
71297;SHT31;59082;50.658;4.608;2022-09-09T07:34:36;16.56;96.04
71297;SHT31;59082;50.658;4.608;2022-09-09T07:37:02;16.36;96.16
71297;SHT31;59082;50.658;4.608;2022-09-09T07:39:27;16.58;95.05
71297;SHT31;59082;50.658;4.608;2022-09-09T07:41:53;16.73;94.78
71297;SHT31;59082;50.658;4.608;2022-09-09T07:44:23;16.79;94.93
71297;SHT31;59082;50.658;4.608;2022-09-09T07:46:52;16.72;95.48
71297;SHT31;59082;50.658;4.608;2022-09-09T07:49:17;16.73;95.01
71297;SHT31;59082;50.658;4.608;2022-09-09T07:51:45;16.75;95.17
71297;SHT31;59082;50.658;4.608;2022-09-09T07:54:13;16.93;95.10
71297;SHT31;59082;50.658;4.608;2022-09-09T07:56:39;16.99;95.04
71297;SHT31;59082;50.658;4.608;2022-09-09T07:59:06;16.86;96.34
71297;SHT31;59082;50.658;4.608;2022-09-09T08:01:35;16.76;96.70
71297;SHT31;59082;50.658;4.608;2022-09-09T08:04:22;16.79;96.09
71297;SHT31;59082;50.658;4.608;2022-09-09T08:06:49;16.77;96.52
71297;SHT31;59082;50.658;4.608;2022-09-09T08:09:14;17.24;94.88
71297;SHT31;59082;50.658;4.608;2022-09-09T08:11:41;17.46;94.96
71297;SHT31;59082;50.658;4.608;2022-09-09T08:14:08;17.14;95.57
71297;SHT31;59082;50.658;4.608;2022-09-09T08:16:37;17.24;95.33
71297;SHT31;59082;50.658;4.608;2022-09-09T08:19:04;17.17;94.62
71297;SHT31;59082;50.658;4.608;2022-09-09T08:21:31;17.41;94.74
71297;SHT31;59082;50.658;4.608;2022-09-09T08:24:00;17.62;94.85
71297;SHT31;59082;50.658;4.608;2022-09-09T08:26:31;17.85;92.92
71297;SHT31;59082;50.658;4.608;2022-09-09T08:28:58;17.66;93.97
71297;SHT31;59082;50.658;4.608;2022-09-09T08:33:51;17.51;93.86
71297;SHT31;59082;50.658;4.608;2022-09-09T08:36:19;17.08;94.91
71297;SHT31;59082;50.658;4.608;2022-09-09T08:38:50;17.02;94.70
71297;SHT31;59082;50.658;4.608;2022-09-09T08:43:50;17.11;94.11
71297;SHT31;59082;50.658;4.608;2022-09-09T08:46:26;17.06;94.04
71297;SHT31;59082;50.658;4.608;2022-09-09T08:51:41;16.73;95.30
71297;SHT31;59082;50.658;4.608;2022-09-09T08:54:08;16.87;97.29
71297;SHT31;59082;50.658;4.608;2022-09-09T08:56:35;17.07;96.83
71297;SHT31;59082;50.658;4.608;2022-09-09T08:59:02;16.88;97.16
71297;SHT31;59082;50.658;4.608;2022-09-09T09:12:36;16.28;99.99
71297;SHT31;59082;50.658;4.608;2022-09-09T09:15:14;16.11;99.99
71297;SHT31;59082;50.658;4.608;2022-09-09T09:17:42;16.04;99.99
71297;SHT31;59082;50.658;4.608;2022-09-09T09:20:15;15.83;99.99
71297;SHT31;59082;50.658;4.608;2022-09-09T09:22:50;15.93;99.99
71297;SHT31;59082;50.658;4.608;2022-09-09T09:25:31;15.98;99.99
71297;SHT31;59082;50.658;4.608;2022-09-09T09:28:20;16.01;99.99
71297;SHT31;59082;50.658;4.608;2022-09-09T09:31:00;16.07;99.99
71297;SHT31;59082;50.658;4.608;2022-09-09T09:33:49;16.21;99.99
71297;SHT31;59082;50.658;4.608;2022-09-09T09:36:16;16.15;99.99
71297;SHT31;59082;50.658;4.608;2022-09-09T09:39:02;16.18;99.99
71297;SHT31;59082;50.658;4.608;2022-09-09T09:44:04;16.00;99.99
71297;SHT31;59082;50.658;4.608;2022-09-09T09:46:31;16.22;99.99
71297;SHT31;59082;50.658;4.608;2022-09-09T09:49:09;16.36;99.99
71297;SHT31;59082;50.658;4.608;2022-09-09T09:51:35;16.32;99.99
71297;SHT31;59082;50.658;4.608;2022-09-09T09:56:41;16.44;99.99
71297;SHT31;59082;50.658;4.608;2022-09-09T09:59:21;16.51;99.99
71297;SHT31;59082;50.658;4.608;2022-09-09T10:01:46;16.69;99.99
71297;SHT31;59082;50.658;4.608;2022-09-09T10:04:20;16.88;99.99
71297;SHT31;59082;50.658;4.608;2022-09-09T10:06:49;16.86;99.99
71297;SHT31;59082;50.658;4.608;2022-09-09T10:09:26;17.15;99.99
71297;SHT31;59082;50.658;4.608;2022-09-09T10:14:53;17.32;99.99
71297;SHT31;59082;50.658;4.608;2022-09-09T10:20:48;17.34;99.62
71297;SHT31;59082;50.658;4.608;2022-09-09T10:26:55;17.58;98.28
71297;SHT31;59082;50.658;4.608;2022-09-09T10:35:04;17.32;99.64
71297;SHT31;59082;50.658;4.608;2022-09-09T10:40:43;17.79;98.90
71297;SHT31;59082;50.658;4.608;2022-09-09T10:43:37;18.16;98.34
71297;SHT31;59082;50.658;4.608;2022-09-09T10:49:02;18.13;98.05
71297;SHT31;59082;50.658;4.608;2022-09-09T10:54:28;18.14;98.40
71297;SHT31;59082;50.658;4.608;2022-09-09T10:57:00;18.17;98.16
71297;SHT31;59082;50.658;4.608;2022-09-09T10:59:33;18.16;97.45
71297;SHT31;59082;50.658;4.608;2022-09-09T11:02:29;18.06;98.12
71297;SHT31;59082;50.658;4.608;2022-09-09T11:04:59;17.99;98.49
71297;SHT31;59082;50.658;4.608;2022-09-09T11:07:34;18.03;98.39
71297;SHT31;59082;50.658;4.608;2022-09-09T11:10:06;17.99;96.07
71297;SHT31;59082;50.658;4.608;2022-09-09T11:12:38;17.99;95.89
71297;SHT31;59082;50.658;4.608;2022-09-09T11:15:15;17.97;96.47
71297;SHT31;59082;50.658;4.608;2022-09-09T11:17:50;18.09;98.85
71297;SHT31;59082;50.658;4.608;2022-09-09T11:20:17;17.96;98.97
71297;SHT31;59082;50.658;4.608;2022-09-09T11:25:31;17.63;99.75
71297;SHT31;59082;50.658;4.608;2022-09-09T11:31:06;17.91;97.73
71297;SHT31;59082;50.658;4.608;2022-09-09T11:33:48;18.00;96.25
71297;SHT31;59082;50.658;4.608;2022-09-09T11:36:56;18.00;98.62
71297;SHT31;59082;50.658;4.608;2022-09-09T11:42:18;17.71;98.50
71297;SHT31;59082;50.658;4.608;2022-09-09T11:44:44;17.49;99.99
71297;SHT31;59082;50.658;4.608;2022-09-09T11:50:40;17.38;99.99
71297;SHT31;59082;50.658;4.608;2022-09-09T11:52:42;17.48;99.99
71297;SHT31;59082;50.658;4.608;2022-09-09T11:55:31;17.15;99.99
71297;SHT31;59082;50.658;4.608;2022-09-09T11:58:05;17.75;99.99
71297;SHT31;59082;50.658;4.608;2022-09-09T12:00:38;17.93;98.86
71297;SHT31;59082;50.658;4.608;2022-09-09T12:03:06;18.07;98.44
71297;SHT31;59082;50.658;4.608;2022-09-09T12:05:44;18.11;97.93
71297;SHT31;59082;50.658;4.608;2022-09-09T12:08:16;18.03;98.06
71297;SHT31;59082;50.658;4.608;2022-09-09T12:10:54;18.33;97.96
71297;SHT31;59082;50.658;4.608;2022-09-09T12:13:23;19.03;96.48
71297;SHT31;59082;50.658;4.608;2022-09-09T12:15:53;19.67;93.71
71297;SHT31;59082;50.658;4.608;2022-09-09T12:18:33;19.91;92.57
71297;SHT31;59082;50.658;4.608;2022-09-09T12:21:02;20.64;92.38
71297;SHT31;59082;50.658;4.608;2022-09-09T12:23:43;20.46;89.85
71297;SHT31;59082;50.658;4.608;2022-09-09T12:31:35;18.89;93.48
71297;SHT31;59082;50.658;4.608;2022-09-09T12:36:58;18.14;96.22
71297;SHT31;59082;50.658;4.608;2022-09-09T12:39:39;18.43;96.15
71297;SHT31;59082;50.658;4.608;2022-09-09T12:42:17;18.48;97.02
71297;SHT31;59082;50.658;4.608;2022-09-09T12:45:03;18.96;95.19
71297;SHT31;59082;50.658;4.608;2022-09-09T12:47:41;19.40;94.57
71297;SHT31;59082;50.658;4.608;2022-09-09T12:50:31;19.95;92.06
71297;SHT31;59082;50.658;4.608;2022-09-09T12:53:03;19.50;93.48
71297;SHT31;59082;50.658;4.608;2022-09-09T12:55:31;19.81;89.84
71297;SHT31;59082;50.658;4.608;2022-09-09T12:57:59;19.82;89.13
71297;SHT31;59082;50.658;4.608;2022-09-09T13:00:26;19.61;91.90
71297;SHT31;59082;50.658;4.608;2022-09-09T13:02:58;20.23;91.67
71297;SHT31;59082;50.658;4.608;2022-09-09T13:05:28;21.73;87.01
71297;SHT31;59082;50.658;4.608;2022-09-09T13:08:06;20.43;87.88
71297;SHT31;59082;50.658;4.608;2022-09-09T13:13:27;19.35;92.31
71297;SHT31;59082;50.658;4.608;2022-09-09T13:15:59;19.37;92.50
71297;SHT31;59082;50.658;4.608;2022-09-09T13:18:30;19.50;90.72
71297;SHT31;59082;50.658;4.608;2022-09-09T13:20:57;19.17;93.09
71297;SHT31;59082;50.658;4.608;2022-09-09T13:23:27;20.34;90.68
71297;SHT31;59082;50.658;4.608;2022-09-09T13:25:59;21.30;87.22
71297;SHT31;59082;50.658;4.608;2022-09-09T13:28:27;21.47;86.54
71297;SHT31;59082;50.658;4.608;2022-09-09T13:30:59;21.70;85.10
71297;SHT31;59082;50.658;4.608;2022-09-09T13:33:36;22.17;84.65
71297;SHT31;59082;50.658;4.608;2022-09-09T13:36:08;21.67;85.64
71297;SHT31;59082;50.658;4.608;2022-09-09T13:39:00;21.78;84.97
71297;SHT31;59082;50.658;4.608;2022-09-09T13:41:32;22.11;85.99
71297;SHT31;59082;50.658;4.608;2022-09-09T13:43:58;21.87;84.19
71297;SHT31;59082;50.658;4.608;2022-09-09T13:51:44;22.35;81.64
71297;SHT31;59082;50.658;4.608;2022-09-09T13:54:13;21.63;84.60
71297;SHT31;59082;50.658;4.608;2022-09-09T13:56:41;21.57;83.17
71297;SHT31;59082;50.658;4.608;2022-09-09T13:59:12;21.19;85.03
71297;SHT31;59082;50.658;4.608;2022-09-09T14:01:38;21.94;84.75
71297;SHT31;59082;50.658;4.608;2022-09-09T14:04:04;21.78;83.61
71297;SHT31;59082;50.658;4.608;2022-09-09T14:06:32;20.95;84.85
71297;SHT31;59082;50.658;4.608;2022-09-09T14:08:58;22.29;82.74
71297;SHT31;59082;50.658;4.608;2022-09-09T14:11:24;23.31;79.69
71297;SHT31;59082;50.658;4.608;2022-09-09T14:13:49;22.36;78.78
71297;SHT31;59082;50.658;4.608;2022-09-09T14:16:16;22.15;80.31
71297;SHT31;59082;50.658;4.608;2022-09-09T14:18:43;22.18;80.06
71297;SHT31;59082;50.658;4.608;2022-09-09T14:21:09;23.68;77.61
71297;SHT31;59082;50.658;4.608;2022-09-09T14:23:35;24.23;75.09
71297;SHT31;59082;50.658;4.608;2022-09-09T14:26:01;25.46;72.55
71297;SHT31;59082;50.658;4.608;2022-09-09T14:28:26;24.00;74.48
71297;SHT31;59082;50.658;4.608;2022-09-09T14:30:53;23.83;77.06
71297;SHT31;59082;50.658;4.608;2022-09-09T14:33:19;23.93;76.57
71297;SHT31;59082;50.658;4.608;2022-09-09T14:35:44;23.22;77.25
71297;SHT31;59082;50.658;4.608;2022-09-09T14:38:10;23.69;77.20
71297;SHT31;59082;50.658;4.608;2022-09-09T14:40:36;21.88;80.89
71297;SHT31;59082;50.658;4.608;2022-09-09T14:43:03;21.86;80.26
71297;SHT31;59082;50.658;4.608;2022-09-09T14:45:29;23.21;78.65
71297;SHT31;59082;50.658;4.608;2022-09-09T14:47:55;22.31;79.87
71297;SHT31;59082;50.658;4.608;2022-09-09T14:50:21;21.64;79.98
71297;SHT31;59082;50.658;4.608;2022-09-09T14:52:47;22.00;79.53
71297;SHT31;59082;50.658;4.608;2022-09-09T14:55:14;22.02;78.78
71297;SHT31;59082;50.658;4.608;2022-09-09T14:57:40;21.38;80.03
71297;SHT31;59082;50.658;4.608;2022-09-09T15:00:07;20.48;81.71
71297;SHT31;59082;50.658;4.608;2022-09-09T15:02:33;20.29;81.39
71297;SHT31;59082;50.658;4.608;2022-09-09T15:04:59;19.99;82.59
71297;SHT31;59082;50.658;4.608;2022-09-09T15:07:25;20.08;83.52
71297;SHT31;59082;50.658;4.608;2022-09-09T15:09:52;19.55;84.71
71297;SHT31;59082;50.658;4.608;2022-09-09T15:12:18;19.61;85.46
71297;SHT31;59082;50.658;4.608;2022-09-09T15:14:44;19.62;86.55
71297;SHT31;59082;50.658;4.608;2022-09-09T15:17:10;19.22;88.17
71297;SHT31;59082;50.658;4.608;2022-09-09T15:19:36;19.19;89.88
71297;SHT31;59082;50.658;4.608;2022-09-09T15:22:03;19.03;89.65
71297;SHT31;59082;50.658;4.608;2022-09-09T15:24:31;19.06;90.14
71297;SHT31;59082;50.658;4.608;2022-09-09T15:26:57;20.81;86.55
71297;SHT31;59082;50.658;4.608;2022-09-09T15:29:23;22.67;83.32
71297;SHT31;59082;50.658;4.608;2022-09-09T15:31:48;24.02;79.42
71297;SHT31;59082;50.658;4.608;2022-09-09T15:34:14;27.18;74.00
71297;SHT31;59082;50.658;4.608;2022-09-09T15:36:43;29.15;67.86
71297;SHT31;59082;50.658;4.608;2022-09-09T15:39:13;29.51;66.11
71297;SHT31;59082;50.658;4.608;2022-09-09T15:41:41;31.06;62.69
71297;SHT31;59082;50.658;4.608;2022-09-09T15:44:08;27.62;69.74
